Contact, Nevada
Current Conditions -  °F | °C
As of 4:53 PM on Friday 19 Dec 2014 (Local Time) from KTWF Reporting Station
Light Rain Light Rain  
Wind Chill: 31°   Ceiling: 4800
Heat Index: 39°   Visibility: 10mi
Dew Point: 34°   Wind: 13mph
Humidity: 82%   Direction: 180°S
Pressure: 30.07"   Gusts: NA
Location:  41.8136°N, 115.084°W
Report Text: KTWF 200053Z AUTO 18011KT 10SM -RA OVC048 04/01 A3007 RMK AO2 SLP173 P0000 T00390011
Loading
Personal Weather Stations






























Interactive Weather Map New forecast layout! Learn more

10-Day Weather Forecast

Advertisements
Track Severe Weather on mobile